Time;durP1;ratioP1;P1;durP2;ratioP2;P2;SDS_P1;SDS_P2;PMS_P1;PMS_P2;Temp;Humidity;BMP_temperature;BMP_pressure;BME280_temperature;BME280_humidity;BME280_pressure;Samples;Min_cycle;Max_cycle;Signal;HPM_P1;HPM_P2
2022/01/21 00:02:05;;;;;;;27.83;4.97;;;-0.80;99.90;;;;;;5099455;28;20032;-87
2022/01/21 00:04:39;;;;;;;18.27;4.00;;;-0.80;99.90;;;;;;5077483;28;20028;-88
2022/01/21 00:07:06;;;;;;;21.48;3.15;;;-0.80;99.90;;;;;;5106752;28;20032;-87
2022/01/21 00:09:31;;;;;;;10.55;3.38;;;-0.80;99.90;;;;;;5115961;28;20382;-88
2022/01/21 00:11:57;;;;;;;19.02;4.03;;;-0.80;99.90;;;;;;5098811;28;20107;-87
2022/01/21 00:14:24;;;;;;;20.92;3.78;;;-0.80;99.90;;;;;;5095484;28;20016;-87
2022/01/21 00:16:50;;;;;;;29.60;4.40;;;-0.80;99.90;;;;;;5102450;28;20030;-87
2022/01/21 00:19:17;;;;;;;26.73;4.63;;;-0.80;99.90;;;;;;5115908;28;20020;-87
2022/01/21 00:30:25;;;;;;;15.05;3.78;;;-0.80;99.90;;;;;;5095210;28;20047;-88
2022/01/21 00:32:51;;;;;;;16.23;3.33;;;-0.80;99.90;;;;;;5095159;28;20119;-88
2022/01/21 00:35:20;;;;;;;16.77;3.67;;;-0.80;99.90;;;;;;5080086;28;20386;-87
2022/01/21 00:37:47;;;;;;;26.35;4.07;;;-0.80;99.90;;;;;;5111709;28;20012;-88
2022/01/21 00:40:19;;;;;;;28.50;4.28;;;-0.80;99.90;;;;;;5090567;28;20028;-88
2022/01/21 00:45:13;;;;;;;18.45;3.20;;;-0.80;99.90;;;;;;5074263;28;20049;-87
2022/01/21 00:47:39;;;;;;;16.83;3.08;;;-0.80;99.90;;;;;;5074667;28;20029;-87
2022/01/21 00:50:14;;;;;;;21.33;3.22;;;-0.90;99.90;;;;;;5087354;28;20019;-87
2022/01/21 00:52:40;;;;;;;19.20;3.63;;;-0.90;99.90;;;;;;5105169;28;20028;-87
2022/01/21 00:55:08;;;;;;;26.55;4.03;;;-0.80;99.90;;;;;;5113877;28;20032;-87
2022/01/21 00:57:34;;;;;;;13.38;3.10;;;-0.90;99.90;;;;;;5106062;28;20050;-87
2022/01/21 00:59:59;;;;;;;18.45;3.33;;;-0.90;99.90;;;;;;5107378;28;20059;-87
2022/01/21 01:02:25;;;;;;;14.45;3.28;;;-0.90;99.90;;;;;;5114768;28;20111;-87
2022/01/21 01:04:51;;;;;;;21.20;3.50;;;-0.90;99.90;;;;;;5106349;28;20537;-86
2022/01/21 01:07:16;;;;;;;18.77;3.00;;;-0.90;99.90;;;;;;5114560;28;20029;-87
2022/01/21 01:09:43;;;;;;;22.58;4.07;;;-0.90;99.90;;;;;;5098546;28;20034;-86
2022/01/21 01:12:48;;;;;;;18.52;5.00;;;-0.90;99.90;;;;;;5094338;28;20020;-87
2022/01/21 01:20:46;;;;;;;24.85;3.85;;;-0.80;99.90;;;;;;5082391;28;20609;-87
2022/01/21 01:28:41;;;;;;;15.68;3.45;;;-0.80;99.90;;;;;;5094255;28;20084;-88
2022/01/21 01:31:06;;;;;;;11.45;3.80;;;-0.80;99.90;;;;;;5093621;28;20187;-87
2022/01/21 01:33:37;;;;;;;13.82;3.55;;;-0.80;99.90;;;;;;5093655;28;20052;-87
2022/01/21 01:36:06;;;;;;;16.85;3.92;;;-0.80;99.90;;;;;;5094158;28;20016;-87
2022/01/21 01:41:24;;;;;;;10.82;3.05;;;-0.90;99.90;;;;;;5084492;28;20078;-87
2022/01/21 01:50:06;;;;;;;15.85;3.08;;;-0.80;99.90;;;;;;5055496;28;20152;-87
2022/01/21 01:52:32;;;;;;;14.13;3.25;;;-0.80;99.90;;;;;;5105283;28;20039;-87
2022/01/21 01:54:58;;;;;;;9.23;2.63;;;-0.70;99.90;;;;;;5095558;28;20024;-87
2022/01/21 01:57:30;;;;;;;15.30;4.15;;;-0.80;99.90;;;;;;5095686;28;20026;-87
2022/01/21 01:59:55;;;;;;;18.17;3.95;;;-0.70;99.90;;;;;;5113696;28;20039;-87
2022/01/21 02:02:29;;;;;;;22.48;3.50;;;-0.80;99.90;;;;;;5113881;28;20525;-87
2022/01/21 02:04:54;;;;;;;14.32;2.92;;;-0.80;99.90;;;;;;5096040;28;20032;-87
2022/01/21 02:07:20;;;;;;;12.60;4.15;;;-0.80;99.90;;;;;;5113796;28;20040;-85
2022/01/21 02:09:46;;;;;;;14.45;3.67;;;-0.80;99.90;;;;;;5113823;28;20061;-87
2022/01/21 02:12:36;;;;;;;18.15;4.10;;;-0.80;99.90;;;;;;5113379;28;20098;-87
2022/01/21 02:15:03;;;;;;;15.23;4.30;;;-0.80;99.90;;;;;;5113233;28;20027;-86
2022/01/21 02:22:46;;;;;;;20.42;3.33;;;-0.80;99.90;;;;;;5095766;28;20104;-87
2022/01/21 02:25:16;;;;;;;6.68;2.45;;;-0.80;99.90;;;;;;5113507;28;20038;-86
2022/01/21 02:27:50;;;;;;;18.20;3.80;;;-0.70;99.90;;;;;;5095231;28;20031;-87
2022/01/21 02:30:20;;;;;;;19.23;2.75;;;-0.70;99.90;;;;;;5094671;28;20426;-87
2022/01/21 02:33:00;;;;;;;11.43;2.88;;;-0.70;99.90;;;;;;5113212;28;20085;-87
2022/01/21 02:35:26;;;;;;;11.73;2.90;;;-0.70;99.90;;;;;;5112982;28;20417;-87
2022/01/21 02:37:52;;;;;;;13.82;2.75;;;-0.70;99.90;;;;;;5113204;28;20463;-87
2022/01/21 02:40:19;;;;;;;18.38;3.08;;;-0.60;99.90;;;;;;5095000;28;20414;-86
2022/01/21 02:42:46;;;;;;;11.13;3.03;;;-0.70;99.90;;;;;;5112966;28;20541;-86
2022/01/21 02:45:14;;;;;;;13.00;3.42;;;-0.70;99.90;;;;;;5097285;28;20036;-87
2022/01/21 02:47:45;;;;;;;14.13;2.85;;;-0.70;99.90;;;;;;5103297;28;20031;-87
2022/01/21 02:50:12;;;;;;;11.02;2.58;;;-0.70;99.90;;;;;;5081807;28;20035;-87
2022/01/21 02:52:52;;;;;;;22.05;3.05;;;-0.70;99.90;;;;;;5113187;28;20024;-87
2022/01/21 02:55:18;;;;;;;10.30;2.70;;;-0.70;99.90;;;;;;5072900;28;20113;-87
2022/01/21 02:57:49;;;;;;;12.00;5.38;;;-0.70;99.90;;;;;;5096494;28;20071;-84
2022/01/21 03:00:15;;;;;;;24.33;3.17;;;-0.70;99.90;;;;;;5112546;28;20098;-85
2022/01/21 03:02:41;;;;;;;14.15;2.97;;;-0.70;99.90;;;;;;5094645;28;20040;-86
2022/01/21 03:05:13;;;;;;;12.15;2.50;;;-0.70;99.90;;;;;;5112888;28;20056;-87
2022/01/21 03:07:45;;;;;;;13.88;2.10;;;-0.70;99.90;;;;;;5113056;28;20027;-87
2022/01/21 03:10:12;;;;;;;16.88;2.83;;;-0.70;99.90;;;;;;5113421;28;20043;-87
2022/01/21 03:12:47;;;;;;;15.73;3.10;;;-0.80;99.90;;;;;;5112945;28;20031;-87
2022/01/21 03:15:12;;;;;;;24.77;2.92;;;-0.80;99.90;;;;;;5112583;28;20024;-88
2022/01/21 03:17:38;;;;;;;8.38;2.22;;;-0.80;99.90;;;;;;5094557;28;20035;-86
2022/01/21 03:20:06;;;;;;;18.50;2.97;;;-0.80;99.90;;;;;;5111453;28;20016;-88
2022/01/21 03:22:31;;;;;;;9.95;2.95;;;-0.80;99.90;;;;;;5112956;28;20020;-84
2022/01/21 03:25:10;;;;;;;19.80;2.78;;;-0.80;99.90;;;;;;5112701;28;20032;-87
2022/01/21 03:27:36;;;;;;;20.67;2.92;;;-0.80;99.90;;;;;;5112813;28;20023;-87
2022/01/21 03:30:11;;;;;;;15.07;3.00;;;-0.80;99.90;;;;;;5112276;28;20023;-88
2022/01/21 03:32:37;;;;;;;4.90;1.90;;;-0.70;99.90;;;;;;5094362;28;20115;-86
2022/01/21 03:35:03;;;;;;;14.98;3.05;;;-0.80;99.90;;;;;;5112302;28;20035;-86
2022/01/21 03:37:31;;;;;;;10.38;2.75;;;-0.80;99.90;;;;;;5094528;28;20022;-88
2022/01/21 03:39:56;;;;;;;19.73;3.05;;;-0.70;99.90;;;;;;5112461;28;20024;-87
2022/01/21 03:42:23;;;;;;;16.20;2.85;;;-0.70;99.90;;;;;;5112620;28;20378;-87
2022/01/21 03:44:50;;;;;;;20.00;2.85;;;-0.70;99.90;;;;;;5111773;28;20044;-87
2022/01/21 03:47:16;;;;;;;17.33;2.72;;;-0.70;99.90;;;;;;5094887;28;20110;-87
2022/01/21 03:49:53;;;;;;;18.35;2.80;;;-0.70;99.90;;;;;;5112463;28;20106;-87
2022/01/21 03:52:18;;;;;;;9.02;2.28;;;-0.60;99.90;;;;;;5110902;28;20063;-87
2022/01/21 03:54:44;;;;;;;25.95;2.90;;;-0.60;99.90;;;;;;5108327;28;20051;-86
2022/01/21 03:57:10;;;;;;;24.40;2.95;;;-0.70;99.90;;;;;;5094293;28;20114;-87
2022/01/21 03:59:35;;;;;;;23.85;3.95;;;-0.60;99.90;;;;;;5112242;28;20020;-86
2022/01/21 04:02:07;;;;;;;27.75;3.25;;;-0.40;99.90;;;;;;5112580;28;20028;-86
2022/01/21 04:04:33;;;;;;;39.25;3.88;;;-0.50;99.90;;;;;;5107449;28;20068;-86
2022/01/21 04:07:00;;;;;;;17.67;3.33;;;-0.40;99.90;;;;;;5116089;28;20031;-87
2022/01/21 04:09:26;;;;;;;28.23;3.90;;;-0.40;99.90;;;;;;5116106;28;20019;-88
2022/01/21 04:11:52;;;;;;;22.33;3.50;;;-0.40;99.90;;;;;;5115394;28;20031;-87
2022/01/21 04:14:18;;;;;;;23.10;3.17;;;-0.40;99.90;;;;;;5097547;28;20019;-87
2022/01/21 04:16:43;;;;;;;22.02;3.90;;;-0.40;99.90;;;;;;5097293;28;20106;-86
2022/01/21 04:19:09;;;;;;;20.63;3.95;;;-0.30;99.90;;;;;;5115753;28;20058;-88
2022/01/21 04:21:35;;;;;;;26.13;3.50;;;-0.40;99.90;;;;;;5114874;28;20402;-87
2022/01/21 04:24:03;;;;;;;28.02;4.05;;;-0.40;99.90;;;;;;5115822;28;20043;-86
2022/01/21 04:26:29;;;;;;;30.85;5.28;;;-0.40;99.90;;;;;;5095510;28;20085;-86
2022/01/21 04:28:56;;;;;;;25.40;3.85;;;-0.30;99.90;;;;;;5115353;28;20119;-86
2022/01/21 04:31:22;;;;;;;21.88;3.63;;;-0.30;99.90;;;;;;5115320;28;20027;-87
2022/01/21 04:33:47;;;;;;;23.80;4.53;;;-0.30;99.90;;;;;;5115426;28;20100;-86
2022/01/21 04:36:13;;;;;;;37.25;4.05;;;-0.30;99.90;;;;;;5115608;28;20027;-88
2022/01/21 04:38:39;;;;;;;32.60;4.65;;;-0.30;99.90;;;;;;5087019;28;20032;-88
2022/01/21 04:41:24;;;;;;;21.67;3.97;;;-0.20;99.90;;;;;;5095476;28;20024;-88
2022/01/21 04:49:22;;;;;;;26.67;3.63;;;-0.20;99.90;;;;;;5095143;28;20031;-88
2022/01/21 04:52:11;;;;;;;16.58;3.63;;;-0.10;99.90;;;;;;5094639;28;20020;-86
2022/01/21 04:54:36;;;;;;;19.15;5.97;;;0.00;99.90;;;;;;5077983;28;20028;-87
2022/01/21 04:57:04;;;;;;;27.70;4.18;;;0.10;99.90;;;;;;5103161;28;20012;-86
2022/01/21 04:59:30;;;;;;;24.85;3.80;;;0.00;99.90;;;;;;5094465;28;20032;-87
2022/01/21 05:01:56;;;;;;;32.45;6.78;;;0.10;99.90;;;;;;5094541;28;20031;-88
2022/01/21 05:04:22;;;;;;;23.70;4.10;;;0.10;99.90;;;;;;5094588;28;20468;-87
2022/01/21 05:06:50;;;;;;;23.45;3.90;;;0.10;99.90;;;;;;5076361;28;20035;-86
2022/01/21 05:09:17;;;;;;;38.50;5.22;;;0.20;99.90;;;;;;5094605;28;20052;-86
2022/01/21 05:11:52;;;;;;;15.70;4.00;;;0.20;99.90;;;;;;5094396;28;20020;-88
2022/01/21 05:14:22;;;;;;;24.52;4.97;;;0.30;99.90;;;;;;5092792;28;20031;-87
2022/01/21 05:17:02;;;;;;;35.72;4.53;;;0.20;99.90;;;;;;5077785;28;20026;-87
2022/01/21 05:19:27;;;;;;;28.85;3.88;;;0.20;99.90;;;;;;5094232;28;20423;-88
2022/01/21 05:21:53;;;;;;;25.20;4.47;;;0.30;99.90;;;;;;5094254;28;20024;-87
2022/01/21 05:24:21;;;;;;;26.35;4.50;;;0.20;99.90;;;;;;5094367;28;20016;-88
2022/01/21 05:26:56;;;;;;;31.98;4.85;;;0.20;99.90;;;;;;5094162;28;20107;-85
2022/01/21 05:29:27;;;;;;;32.92;4.75;;;0.30;99.90;;;;;;5110077;28;20028;-88
2022/01/21 05:31:52;;;;;;;19.70;4.28;;;0.30;99.90;;;;;;5114254;28;20122;-86
2022/01/21 05:34:22;;;;;;;24.70;4.32;;;0.30;99.90;;;;;;5098633;28;20016;-88
2022/01/21 05:36:48;;;;;;;24.05;4.45;;;0.30;99.90;;;;;;5094088;28;20062;-88
2022/01/21 05:39:16;;;;;;;67.88;8.02;;;0.30;99.90;;;;;;5075844;28;20466;-88
2022/01/21 05:41:50;;;;;;;30.70;3.85;;;0.40;99.90;;;;;;5093757;28;20043;-88
2022/01/21 05:46:57;;;;;;;30.40;3.88;;;0.50;99.90;;;;;;5094137;28;20032;-89
2022/01/21 05:49:25;;;;;;;33.15;4.85;;;0.50;99.90;;;;;;5093741;28;20053;-87
2022/01/21 05:52:01;;;;;;;39.55;6.22;;;0.50;99.90;;;;;;5093384;28;20518;-86
2022/01/21 05:54:26;;;;;;;31.70;5.18;;;0.60;99.90;;;;;;5093744;28;20020;-86
2022/01/21 05:56:52;;;;;;;46.17;5.55;;;0.60;99.90;;;;;;5075495;28;20080;-84
2022/01/21 05:59:51;;;;;;;39.10;4.90;;;0.70;99.90;;;;;;5093475;28;20095;-86
2022/01/21 06:02:17;;;;;;;32.55;7.05;;;0.70;99.90;;;;;;5093407;28;20119;-87
2022/01/21 06:04:46;;;;;;;27.67;4.40;;;0.80;99.90;;;;;;5093455;28;20051;-88
2022/01/21 06:07:12;;;;;;;29.75;4.18;;;0.90;99.90;;;;;;5093606;28;20024;-88
2022/01/21 06:09:38;;;;;;;23.58;5.03;;;0.80;99.90;;;;;;5093427;28;20034;-88
2022/01/21 06:12:07;;;;;;;30.92;5.05;;;0.90;99.90;;;;;;5098045;28;20015;-86
2022/01/21 06:14:54;;;;;;;26.30;4.68;;;0.90;99.90;;;;;;5113339;28;20016;-89
2022/01/21 06:17:20;;;;;;;30.15;5.32;;;0.90;99.90;;;;;;5095547;28;20020;-89
2022/01/21 06:19:45;;;;;;;34.13;4.18;;;1.00;99.90;;;;;;5095551;28;20532;-89
2022/01/21 06:22:16;;;;;;;25.33;5.07;;;1.00;99.90;;;;;;5109876;28;20020;-87
2022/01/21 06:24:42;;;;;;;20.15;4.05;;;1.10;99.90;;;;;;5074970;28;20387;-88
2022/01/21 06:27:08;;;;;;;29.15;4.82;;;1.10;99.90;;;;;;5092759;28;20035;-87
2022/01/21 06:29:45;;;;;;;32.25;4.72;;;1.10;99.90;;;;;;5092861;28;20020;-88
2022/01/21 06:32:10;;;;;;;28.00;4.10;;;1.10;99.90;;;;;;5072634;28;20036;-88
2022/01/21 06:34:36;;;;;;;32.47;5.30;;;1.10;99.90;;;;;;5082964;28;20028;-87
2022/01/21 06:37:01;;;;;;;33.00;4.20;;;1.10;99.90;;;;;;5113086;28;20073;-88
2022/01/21 06:39:33;;;;;;;34.72;4.88;;;1.20;99.90;;;;;;5113224;28;20480;-88
2022/01/21 06:42:02;;;;;;;26.63;5.68;;;1.20;99.90;;;;;;5105678;28;20016;-88
2022/01/21 06:44:36;;;;;;;38.55;4.75;;;1.20;99.90;;;;;;5096835;28;20111;-88
2022/01/21 06:47:03;;;;;;;24.40;4.15;;;1.30;99.90;;;;;;5092560;28;20017;-87
2022/01/21 06:49:28;;;;;;;19.83;4.47;;;1.30;99.90;;;;;;5111253;28;20024;-88
2022/01/21 06:51:54;;;;;;;31.83;4.00;;;1.20;99.90;;;;;;5112203;28;20100;-87
2022/01/21 06:54:20;;;;;;;42.63;6.13;;;1.30;99.90;;;;;;5112631;28;20507;-89
2022/01/21 06:56:45;;;;;;;32.00;5.82;;;1.30;99.90;;;;;;5112512;28;20399;-88
2022/01/21 06:59:11;;;;;;;26.38;5.68;;;1.40;99.90;;;;;;5112243;28;20111;-86
2022/01/21 07:01:36;;;;;;;28.40;4.93;;;1.40;99.90;;;;;;5105598;28;20464;-89
2022/01/21 07:04:02;;;;;;;18.60;5.07;;;1.40;99.90;;;;;;5096028;28;20028;-88
2022/01/21 07:06:28;;;;;;;42.67;4.80;;;1.40;99.90;;;;;;5079848;28;20042;-88
2022/01/21 07:08:54;;;;;;;20.65;3.92;;;1.50;99.90;;;;;;5073830;28;20032;-86
2022/01/21 07:11:19;;;;;;;21.13;3.72;;;1.50;99.90;;;;;;5102854;28;20067;-88
2022/01/21 07:13:45;;;;;;;39.50;5.15;;;1.50;99.90;;;;;;5106662;28;20077;-86
2022/01/21 07:16:11;;;;;;;23.70;4.28;;;1.50;99.90;;;;;;5105089;28;20017;-85
2022/01/21 07:18:37;;;;;;;35.28;4.50;;;1.50;99.90;;;;;;5097905;28;20422;-86
2022/01/21 07:21:02;;;;;;;27.80;4.35;;;1.50;99.90;;;;;;5106608;28;20028;-86
2022/01/21 07:23:28;;;;;;;30.05;6.38;;;1.60;99.90;;;;;;5091869;28;20027;-86
2022/01/21 07:25:53;;;;;;;34.88;4.80;;;1.60;99.90;;;;;;5094157;28;20032;-86
2022/01/21 07:28:19;;;;;;;30.92;4.95;;;1.60;99.90;;;;;;5098775;28;20092;-85
2022/01/21 07:30:45;;;;;;;46.22;5.10;;;1.60;99.90;;;;;;5092097;28;20158;-86
2022/01/21 07:33:10;;;;;;;20.52;3.78;;;1.60;99.90;;;;;;5077356;28;20052;-86
2022/01/21 07:35:36;;;;;;;32.15;4.10;;;1.70;99.90;;;;;;5091639;28;20101;-87
2022/01/21 07:38:01;;;;;;;22.83;4.72;;;1.70;99.90;;;;;;5094227;28;20031;-86
2022/01/21 07:40:27;;;;;;;24.20;3.95;;;1.80;99.90;;;;;;5095639;28;20061;-86
2022/01/21 07:42:53;;;;;;;40.63;6.40;;;1.80;99.90;;;;;;5078427;28;20103;-86
2022/01/21 07:45:21;;;;;;;20.13;5.55;;;1.80;99.90;;;;;;5115394;28;20040;-86
2022/01/21 07:47:47;;;;;;;24.60;3.20;;;1.90;99.90;;;;;;5078189;28;20047;-86
2022/01/21 07:50:13;;;;;;;19.30;3.50;;;1.90;99.90;;;;;;5095358;28;20070;-86
2022/01/21 07:52:38;;;;;;;28.13;3.72;;;1.80;99.90;;;;;;5100912;28;20028;-86
2022/01/21 07:55:04;;;;;;;26.15;3.83;;;1.80;99.90;;;;;;5096686;28;20095;-87
2022/01/21 07:57:30;;;;;;;31.20;4.38;;;1.80;99.90;;;;;;5097874;28;20028;-86
2022/01/21 07:59:57;;;;;;;19.00;2.78;;;1.70;99.90;;;;;;5115273;28;20356;-86
2022/01/21 08:02:24;;;;;;;21.65;4.03;;;1.70;99.90;;;;;;5115544;28;20023;-85
2022/01/21 08:04:55;;;;;;;27.42;3.15;;;1.70;99.90;;;;;;5114052;28;20030;-85
2022/01/21 08:07:20;;;;;;;24.80;5.55;;;1.50;99.90;;;;;;5098073;28;20104;-87
2022/01/21 08:09:48;;;;;;;18.10;3.67;;;1.60;99.90;;;;;;5116004;28;20028;-86
2022/01/21 08:12:21;;;;;;;25.60;3.33;;;1.60;99.90;;;;;;5115081;28;20053;-86
2022/01/21 08:14:47;;;;;;;26.95;3.80;;;1.60;99.90;;;;;;5115920;28;20020;-86
2022/01/21 08:17:13;;;;;;;26.23;4.00;;;1.50;99.90;;;;;;5111806;28;20095;-86
2022/01/21 08:19:46;;;;;;;24.98;4.55;;;1.50;99.90;;;;;;5095304;28;20024;-86
2022/01/21 08:22:12;;;;;;;23.63;3.42;;;1.50;99.90;;;;;;5099745;28;20103;-87
2022/01/21 08:24:37;;;;;;;26.05;4.32;;;1.60;99.90;;;;;;5106276;28;20098;-85
2022/01/21 08:27:04;;;;;;;25.38;4.07;;;1.40;99.90;;;;;;5105707;28;20024;-85
2022/01/21 08:29:29;;;;;;;22.35;4.03;;;1.50;99.90;;;;;;5110098;28;20028;-86
2022/01/21 08:31:55;;;;;;;20.67;3.85;;;1.60;99.90;;;;;;5079224;28;20502;-87
2022/01/21 08:34:20;;;;;;;26.98;4.28;;;1.60;99.90;;;;;;5100772;28;20031;-87
2022/01/21 08:36:48;;;;;;;35.47;5.00;;;1.60;99.90;;;;;;5104239;28;20031;-87
2022/01/21 08:39:15;;;;;;;30.20;5.53;;;1.70;99.90;;;;;;5093694;28;20046;-86
2022/01/21 08:41:42;;;;;;;22.95;3.65;;;1.80;99.90;;;;;;5079762;28;20077;-85
2022/01/21 08:44:07;;;;;;;19.70;3.45;;;1.80;99.90;;;;;;5093390;28;20055;-88
2022/01/21 08:46:33;;;;;;;25.80;4.20;;;1.80;99.90;;;;;;5104101;28;20051;-87
2022/01/21 08:49:05;;;;;;;27.38;3.90;;;1.90;99.90;;;;;;5074776;28;20038;-85
2022/01/21 08:51:39;;;;;;;22.33;3.75;;;1.90;99.90;;;;;;5076432;28;20028;-87
2022/01/21 08:54:05;;;;;;;29.67;3.38;;;2.00;99.90;;;;;;5093993;28;20070;-87
2022/01/21 08:56:31;;;;;;;21.13;4.32;;;2.10;99.90;;;;;;5094491;28;20055;-88
2022/01/21 08:58:56;;;;;;;24.42;3.05;;;2.20;99.90;;;;;;5094202;28;20032;-87
2022/01/21 09:01:22;;;;;;;19.23;3.45;;;2.10;99.90;;;;;;5076410;28;20026;-86
2022/01/21 09:03:47;;;;;;;31.52;4.35;;;2.10;99.90;;;;;;5094300;28;20024;-86
2022/01/21 09:06:18;;;;;;;24.73;3.47;;;2.20;99.90;;;;;;5094408;28;20024;-86
2022/01/21 09:08:45;;;;;;;20.58;3.63;;;2.10;99.90;;;;;;5094222;28;20055;-85
2022/01/21 09:11:12;;;;;;;19.05;3.42;;;2.10;99.90;;;;;;5094418;28;20028;-85
2022/01/21 09:13:40;;;;;;;27.88;5.00;;;2.10;99.90;;;;;;5093756;28;20036;-85
2022/01/21 09:16:07;;;;;;;21.33;3.75;;;2.20;99.90;;;;;;5094105;28;20027;-86
2022/01/21 09:18:45;;;;;;;18.45;3.55;;;2.20;99.90;;;;;;5094091;28;20021;-86
2022/01/21 09:21:12;;;;;;;25.70;4.15;;;2.20;99.90;;;;;;5094073;28;20112;-86
2022/01/21 09:23:40;;;;;;;30.83;4.10;;;2.20;99.90;;;;;;5093879;28;20028;-86
2022/01/21 09:26:07;;;;;;;14.95;3.42;;;2.20;99.90;;;;;;5093877;28;20038;-87
2022/01/21 09:28:33;;;;;;;19.20;3.05;;;2.20;99.90;;;;;;5093503;28;20020;-86
2022/01/21 09:30:58;;;;;;;18.27;3.00;;;2.10;99.90;;;;;;5075554;28;20388;-86
2022/01/21 09:33:24;;;;;;;21.05;3.10;;;2.20;99.90;;;;;;5093768;28;20040;-87
2022/01/21 09:35:50;;;;;;;13.05;2.83;;;2.10;99.90;;;;;;5093750;28;20028;-85
2022/01/21 09:38:16;;;;;;;13.63;2.83;;;2.10;99.90;;;;;;5093749;28;20040;-85
2022/01/21 09:40:47;;;;;;;24.33;4.15;;;2.10;99.90;;;;;;5093852;28;20023;-84
2022/01/21 09:43:14;;;;;;;26.40;3.92;;;2.00;99.90;;;;;;5093042;28;20035;-84
2022/01/21 09:45:40;;;;;;;21.27;4.43;;;2.00;99.90;;;;;;5075305;28;20051;-85
2022/01/21 09:48:09;;;;;;;16.98;3.60;;;2.00;99.90;;;;;;5093516;28;20128;-84
2022/01/21 09:50:35;;;;;;;14.98;4.20;;;2.00;99.90;;;;;;5101959;28;20099;-84
2022/01/21 09:53:01;;;;;;;19.88;4.63;;;2.00;99.90;;;;;;5109335;28;20028;-84
2022/01/21 09:55:27;;;;;;;22.98;4.15;;;1.90;99.90;;;;;;5100984;28;20114;-84
2022/01/21 09:57:55;;;;;;;17.00;4.30;;;1.80;99.90;;;;;;5110365;28;20114;-84
2022/01/21 10:00:24;;;;;;;35.58;5.15;;;1.80;99.90;;;;;;5095085;28;20024;-84
2022/01/21 10:02:52;;;;;;;17.08;4.20;;;1.90;99.90;;;;;;5087861;28;20024;-84
2022/01/21 10:05:18;;;;;;;13.02;4.57;;;1.80;99.90;;;;;;5082593;28;20494;-85
2022/01/21 10:07:48;;;;;;;19.83;4.45;;;1.80;99.90;;;;;;5109614;28;20032;-85
2022/01/21 10:10:15;;;;;;;19.17;4.68;;;1.80;99.90;;;;;;5093329;28;20073;-85
2022/01/21 10:12:44;;;;;;;20.23;4.45;;;1.80;99.90;;;;;;5108880;28;20028;-85
2022/01/21 10:15:10;;;;;;;14.30;4.90;;;1.90;99.90;;;;;;5108116;28;20012;-85
2022/01/21 10:17:36;;;;;;;21.20;5.18;;;1.90;99.90;;;;;;5106172;28;20110;-84
2022/01/21 10:20:13;;;;;;;23.88;5.38;;;1.90;99.90;;;;;;5106790;28;20103;-84
2022/01/21 10:22:57;;;;;;;27.40;5.05;;;1.90;99.90;;;;;;5111151;28;20023;-85
2022/01/21 10:25:22;;;;;;;21.20;4.60;;;1.90;99.90;;;;;;5075518;28;20035;-85
2022/01/21 10:27:48;;;;;;;12.30;3.83;;;1.80;99.90;;;;;;5094220;28;20035;-84
2022/01/21 10:30:22;;;;;;;21.23;4.88;;;1.80;99.90;;;;;;5112697;28;20027;-85
2022/01/21 10:32:48;;;;;;;19.23;5.13;;;1.80;99.90;;;;;;5102221;28;20114;-85
2022/01/21 10:35:22;;;;;;;20.20;4.75;;;1.80;99.90;;;;;;5103133;28;20098;-85
2022/01/21 10:37:49;;;;;;;10.52;4.90;;;1.80;99.90;;;;;;5088400;28;20024;-85
2022/01/21 10:40:16;;;;;;;18.45;4.93;;;1.80;99.90;;;;;;5093744;28;20103;-85
2022/01/21 10:42:42;;;;;;;20.80;5.40;;;1.80;99.90;;;;;;5099133;28;20032;-85
2022/01/21 10:45:09;;;;;;;18.55;4.07;;;1.90;99.90;;;;;;5109906;28;20069;-86
2022/01/21 10:47:41;;;;;;;18.88;5.22;;;1.90;99.90;;;;;;5105137;28;20059;-86
2022/01/21 10:50:18;;;;;;;14.77;5.78;;;1.90;99.90;;;;;;5092808;28;20024;-84
2022/01/21 10:52:51;;;;;;;20.58;4.80;;;1.90;99.90;;;;;;5087910;28;20495;-84
2022/01/21 10:55:33;;;;;;;14.23;5.10;;;1.90;99.90;;;;;;5092276;28;20020;-84
2022/01/21 10:58:14;;;;;;;32.63;5.32;;;1.90;99.90;;;;;;5088221;28;20051;-84
2022/01/21 11:01:03;;;;;;;12.73;4.25;;;1.90;99.90;;;;;;5091977;28;20522;-84
2022/01/21 11:03:30;;;;;;;24.52;5.95;;;1.90;99.90;;;;;;5075172;28;20020;-84
2022/01/21 11:06:37;;;;;;;25.17;5.30;;;1.90;99.90;;;;;;5091533;28;20488;-89
2022/01/21 11:09:16;;;;;;;15.13;4.93;;;1.90;99.90;;;;;;5054071;28;20430;-84
2022/01/21 11:11:44;;;;;;;24.35;5.18;;;1.80;99.90;;;;;;5096822;28;20036;-85
2022/01/21 11:14:15;;;;;;;18.98;4.50;;;1.80;99.90;;;;;;5097539;28;20019;-83
2022/01/21 11:16:45;;;;;;;20.60;5.93;;;1.90;99.90;;;;;;5098229;28;20019;-84
2022/01/21 11:19:13;;;;;;;19.80;6.03;;;1.90;99.90;;;;;;5095026;28;20053;-84
2022/01/21 11:21:46;;;;;;;29.27;7.60;;;1.90;99.90;;;;;;5080501;28;20028;-84
2022/01/21 11:24:16;;;;;;;19.17;6.20;;;1.90;99.90;;;;;;5086309;28;20020;-83
2022/01/21 11:26:42;;;;;;;11.43;5.25;;;1.90;99.90;;;;;;5112476;28;20027;-84
2022/01/21 11:29:12;;;;;;;36.47;7.03;;;1.80;99.90;;;;;;5111869;28;20472;-83
2022/01/21 11:31:38;;;;;;;17.88;6.82;;;1.90;99.90;;;;;;5112242;28;20024;-83
2022/01/21 11:34:03;;;;;;;17.52;6.75;;;1.90;99.90;;;;;;5096524;28;20831;-84
2022/01/21 11:36:29;;;;;;;17.35;5.80;;;2.00;99.90;;;;;;5096341;28;20075;-84
2022/01/21 11:38:58;;;;;;;17.75;6.38;;;2.00;99.90;;;;;;5100710;28;20031;-84
2022/01/21 11:41:25;;;;;;;15.07;5.22;;;2.00;99.90;;;;;;5077793;28;20058;-84
2022/01/21 11:43:53;;;;;;;18.67;6.28;;;2.00;99.90;;;;;;5078213;28;20571;-85
2022/01/21 11:48:51;;;;;;;27.23;6.20;;;2.00;99.90;;;;;;5100332;28;20093;-84
2022/01/21 11:51:32;;;;;;;20.45;8.23;;;2.00;99.90;;;;;;5095695;28;20115;-84
2022/01/21 11:54:05;;;;;;;24.45;6.30;;;1.90;99.90;;;;;;5095331;28;20032;-84
2022/01/21 11:56:35;;;;;;;18.35;6.72;;;2.00;99.90;;;;;;5104646;28;20068;-84
2022/01/21 11:59:05;;;;;;;21.67;5.68;;;2.00;99.90;;;;;;5105246;28;20440;-83
2022/01/21 12:01:46;;;;;;;23.52;5.43;;;2.00;99.90;;;;;;5104104;28;20522;-85
2022/01/21 12:04:12;;;;;;;17.58;4.82;;;2.10;99.90;;;;;;5106399;28;20024;-84
2022/01/21 12:06:37;;;;;;;20.02;5.10;;;2.20;99.90;;;;;;5095246;28;20388;-85
2022/01/21 12:09:05;;;;;;;20.63;6.00;;;2.30;99.90;;;;;;5095511;28;20441;-84
2022/01/21 12:11:38;;;;;;;14.48;5.07;;;2.30;99.90;;;;;;5107889;28;20107;-84
2022/01/21 12:14:37;;;;;;;16.25;6.78;;;2.30;99.90;;;;;;5092321;28;20100;-83
2022/01/21 12:17:36;;;;;;;19.30;6.75;;;2.40;99.90;;;;;;5094724;28;20016;-84
2022/01/21 12:20:05;;;;;;;24.35;6.00;;;2.40;99.90;;;;;;5090810;28;20496;-83
2022/01/21 12:22:31;;;;;;;31.63;6.10;;;2.40;99.90;;;;;;5094200;28;20027;-85
2022/01/21 12:25:09;;;;;;;16.95;6.03;;;2.30;99.90;;;;;;5094215;28;20484;-84
2022/01/21 12:27:36;;;;;;;33.22;8.25;;;2.30;99.90;;;;;;5094899;28;20119;-84
2022/01/21 12:30:20;;;;;;;19.40;5.93;;;2.20;99.90;;;;;;5097054;28;20027;-83
2022/01/21 12:33:08;;;;;;;23.15;6.65;;;2.20;99.90;;;;;;5095017;28;20019;-83
2022/01/21 12:35:34;;;;;;;19.08;6.13;;;2.10;99.90;;;;;;5093652;28;20036;-83
2022/01/21 12:39:13;;;;;;;29.85;7.50;;;2.10;99.90;;;;;;5107409;28;20027;-83
2022/01/21 12:41:16;;;;;;;20.77;7.30;;;2.00;99.90;;;;;;5097037;28;20101;-83
2022/01/21 12:43:56;;;;;;;18.63;6.43;;;2.00;99.90;;;;;;5114869;28;20070;-84
2022/01/21 12:46:42;;;;;;;21.02;7.03;;;1.90;99.90;;;;;;5098668;28;20031;-83
2022/01/21 12:49:46;;;;;;;22.35;7.35;;;1.90;99.90;;;;;;5083957;28;20020;-83
2022/01/21 12:52:45;;;;;;;27.38;9.15;;;2.00;99.90;;;;;;5090899;28;20035;-83
2022/01/21 12:58:12;;;;;;;30.02;6.60;;;2.00;99.90;;;;;;5094605;28;20027;-84
2022/01/21 13:00:39;;;;;;;17.15;6.25;;;2.00;99.90;;;;;;5110333;28;20042;-84
2022/01/21 13:03:27;;;;;;;21.27;6.07;;;2.10;99.90;;;;;;5094492;28;20032;-84
2022/01/21 13:05:57;;;;;;;20.52;6.45;;;2.10;99.90;;;;;;5096983;28;20024;-83
2022/01/21 13:09:00;;;;;;;18.00;6.35;;;2.10;99.90;;;;;;5076410;28;20119;-81
2022/01/21 13:11:29;;;;;;;17.73;6.68;;;2.20;99.90;;;;;;5076141;28;20126;-82
2022/01/21 13:17:02;;;;;;;27.93;7.53;;;2.20;99.90;;;;;;5078161;28;20071;-85
2022/01/21 13:19:55;;;;;;;27.98;6.97;;;2.20;99.90;;;;;;5076654;28;20020;-84
2022/01/21 13:22:37;;;;;;;24.17;6.68;;;2.20;99.90;;;;;;5081861;28;20023;-84
2022/01/21 13:25:12;;;;;;;26.02;6.63;;;2.20;99.90;;;;;;5106574;28;20020;-84
2022/01/21 13:27:59;;;;;;;22.30;6.63;;;2.30;99.90;;;;;;5101025;28;20107;-82
2022/01/21 13:30:31;;;;;;;23.42;6.85;;;2.30;99.90;;;;;;5076055;28;20016;-84
2022/01/21 13:33:07;;;;;;;25.48;6.75;;;2.30;99.90;;;;;;5102449;28;20023;-84
2022/01/21 13:35:33;;;;;;;20.35;6.88;;;2.30;99.90;;;;;;5074946;28;20098;-84
2022/01/21 13:38:14;;;;;;;31.85;7.38;;;2.30;99.90;;;;;;5112574;28;20023;-84
2022/01/21 13:40:46;;;;;;;28.40;7.45;;;2.30;99.90;;;;;;5094282;28;20055;-84
2022/01/21 13:43:17;;;;;;;24.45;6.78;;;2.30;99.90;;;;;;5106057;28;20024;-84
2022/01/21 13:46:00;;;;;;;21.48;6.13;;;2.30;99.90;;;;;;5094022;28;20160;-84
2022/01/21 13:48:28;;;;;;;28.33;6.32;;;2.30;99.90;;;;;;5089262;28;20028;-85
2022/01/21 13:50:55;;;;;;;26.75;6.28;;;2.30;99.90;;;;;;5110632;28;20039;-85